createdAt,value
2022-12-05T00:01:49.986Z,17.95
2022-12-05T00:04:18.139Z,16.90
2022-12-05T00:06:47.485Z,19.33
2022-12-05T00:09:15.967Z,19.13
2022-12-05T00:11:45.219Z,18.65
2022-12-05T00:14:14.144Z,18.30
2022-12-05T00:16:43.576Z,17.58
2022-12-05T00:19:15.618Z,19.00
2022-12-05T00:21:44.743Z,18.38
2022-12-05T00:24:16.736Z,17.65
2022-12-05T00:26:45.327Z,19.83
2022-12-05T00:29:13.842Z,18.63
2022-12-05T00:31:41.840Z,17.98
2022-12-05T00:34:14.643Z,17.63
2022-12-05T00:36:51.987Z,17.00
2022-12-05T00:39:29.229Z,16.25
2022-12-05T00:42:03.199Z,15.38
2022-12-05T00:44:32.501Z,14.80
2022-12-05T00:47:01.386Z,14.98
2022-12-05T00:49:34.383Z,16.40
2022-12-05T00:52:07.378Z,15.73
2022-12-05T00:54:36.677Z,15.70
2022-12-05T00:57:04.755Z,15.75
2022-12-05T00:59:32.720Z,15.80
2022-12-05T01:02:00.639Z,16.50
2022-12-05T01:04:28.977Z,16.52
2022-12-05T01:06:59.874Z,15.48
2022-12-05T01:09:28.173Z,13.80
2022-12-05T01:11:57.649Z,15.10
2022-12-05T01:14:27.000Z,15.65
2022-12-05T01:16:56.949Z,17.25
2022-12-05T01:19:28.651Z,16.15
2022-12-05T01:21:57.409Z,15.98
2022-12-05T01:24:26.912Z,15.70
2022-12-05T01:26:54.905Z,18.02
2022-12-05T01:29:25.516Z,17.80
2022-12-05T01:31:54.119Z,16.98
2022-12-05T01:34:23.926Z,18.58
2022-12-05T01:36:52.148Z,16.60
2022-12-05T01:39:20.280Z,17.90
2022-12-05T01:41:51.163Z,18.15
2022-12-05T01:44:56.459Z,19.17
2022-12-05T01:47:28.780Z,18.77
2022-12-05T01:49:58.557Z,21.08
2022-12-05T01:52:29.981Z,19.42
2022-12-05T01:55:03.598Z,20.52
2022-12-05T01:57:32.089Z,18.80
2022-12-05T02:00:03.318Z,18.92
2022-12-05T02:02:33.568Z,19.08
2022-12-05T02:05:05.958Z,19.48
2022-12-05T02:07:34.749Z,21.20
2022-12-05T02:10:02.682Z,18.85
2022-12-05T02:12:30.715Z,20.02
2022-12-05T02:15:09.003Z,21.48
2022-12-05T02:17:47.614Z,22.38
2022-12-05T02:20:27.716Z,20.55
2022-12-05T02:23:49.255Z,20.05
2022-12-05T02:26:38.976Z,20.48
2022-12-05T02:29:34.682Z,20.75
2022-12-05T02:32:11.524Z,20.15
2022-12-05T02:34:46.161Z,19.67
2022-12-05T02:37:17.713Z,22.02
2022-12-05T02:39:52.713Z,19.80
2022-12-05T02:42:25.490Z,21.27
2022-12-05T02:44:57.373Z,19.92
2022-12-05T02:47:30.569Z,18.98
2022-12-05T02:49:59.727Z,19.10
2022-12-05T02:52:31.209Z,21.67
2022-12-05T02:55:00.270Z,20.38
2022-12-05T02:57:28.632Z,21.00
2022-12-05T02:59:56.858Z,20.52
2022-12-05T03:02:29.511Z,20.60
2022-12-05T03:04:59.417Z,21.20
2022-12-05T03:07:30.608Z,20.40
2022-12-05T03:10:03.702Z,20.70
2022-12-05T03:12:34.698Z,20.52
2022-12-05T03:15:06.251Z,20.17
2022-12-05T03:17:41.901Z,18.27
2022-12-05T03:20:16.680Z,19.25
2022-12-05T03:22:50.538Z,19.00
2022-12-05T03:25:19.193Z,18.90
2022-12-05T03:27:52.681Z,18.08
2022-12-05T03:30:23.094Z,19.90
2022-12-05T03:32:55.968Z,18.55
2022-12-05T03:35:30.154Z,19.73
2022-12-05T03:38:02.446Z,18.33
2022-12-05T03:40:35.685Z,17.52
2022-12-05T03:43:10.389Z,18.13
2022-12-05T03:45:45.686Z,18.63
2022-12-05T03:48:22.336Z,15.52
2022-12-05T03:50:53.897Z,17.40
2022-12-05T03:53:26.017Z,17.65
2022-12-05T03:56:01.131Z,16.23
2022-12-05T03:58:34.194Z,17.65
2022-12-05T04:01:05.878Z,16.13
2022-12-05T04:03:40.772Z,16.80
2022-12-05T04:06:16.922Z,19.25
2022-12-05T04:08:53.324Z,16.98
2022-12-05T04:11:24.729Z,16.80
2022-12-05T04:13:55.891Z,16.67
2022-12-05T04:16:45.060Z,17.27
2022-12-05T04:19:20.191Z,17.27
2022-12-05T04:21:50.041Z,16.55
2022-12-05T04:24:38.167Z,15.40
2022-12-05T04:27:21.291Z,17.98
2022-12-05T04:29:58.279Z,17.02
2022-12-05T04:32:31.403Z,15.43
2022-12-05T04:35:07.413Z,16.55
2022-12-05T04:37:38.427Z,16.25
2022-12-05T04:40:11.744Z,16.23
2022-12-05T04:42:42.637Z,16.60
2022-12-05T04:45:14.064Z,16.35
2022-12-05T04:47:45.774Z,15.82
2022-12-05T04:50:16.925Z,16.92
2022-12-05T04:52:48.872Z,13.73
2022-12-05T04:55:25.684Z,14.63
2022-12-05T04:58:03.957Z,13.82
2022-12-05T05:00:34.979Z,13.70
2022-12-05T05:03:08.357Z,14.18
2022-12-05T05:05:39.801Z,15.15
2022-12-05T05:08:18.690Z,12.73
2022-12-05T05:10:56.002Z,13.38
2022-12-05T05:13:23.963Z,13.73
2022-12-05T05:15:51.890Z,13.50
2022-12-05T05:18:19.845Z,13.55
2022-12-05T05:20:49.142Z,13.27
2022-12-05T05:23:17.042Z,12.80
2022-12-05T05:25:45.081Z,13.63
2022-12-05T05:28:12.998Z,13.55
2022-12-05T05:30:40.994Z,12.95
2022-12-05T05:33:08.976Z,12.32
2022-12-05T05:35:37.726Z,12.43
2022-12-05T05:38:07.055Z,13.18
2022-12-05T05:40:37.471Z,12.10
2022-12-05T05:43:05.877Z,12.98
2022-12-05T05:45:33.839Z,11.63
2022-12-05T05:48:01.773Z,11.25
2022-12-05T05:50:29.902Z,11.82
2022-12-05T05:52:57.935Z,13.05
2022-12-05T05:55:27.395Z,11.65
2022-12-05T05:57:55.422Z,12.48
2022-12-05T06:00:23.868Z,12.23
2022-12-05T06:02:51.992Z,14.18
2022-12-05T06:05:20.235Z,12.65
2022-12-05T06:07:48.274Z,12.98
2022-12-05T06:10:16.551Z,12.25
2022-12-05T06:12:45.841Z,12.38
2022-12-05T06:15:13.859Z,12.75
2022-12-05T06:17:41.915Z,11.25
2022-12-05T06:20:10.595Z,12.75
2022-12-05T06:22:38.598Z,11.98
2022-12-05T06:25:07.835Z,11.82
2022-12-05T06:27:36.019Z,12.80
2022-12-05T06:30:06.391Z,12.15
2022-12-05T06:32:34.304Z,11.48
2022-12-05T06:35:07.798Z,10.27
2022-12-05T06:37:37.597Z,11.77
2022-12-05T06:40:06.894Z,11.10
2022-12-05T06:42:34.816Z,11.40
2022-12-05T06:45:05.362Z,12.18
2022-12-05T06:47:33.228Z,10.48
2022-12-05T06:50:01.155Z,11.55
2022-12-05T06:52:29.052Z,11.85
2022-12-05T06:54:57.000Z,11.43
2022-12-05T06:57:24.881Z,10.48
2022-12-05T07:00:12.797Z,11.38
2022-12-05T07:02:41.955Z,11.00
2022-12-05T07:05:10.618Z,12.35
2022-12-05T07:07:38.834Z,11.10
2022-12-05T07:10:08.325Z,12.05
2022-12-05T07:12:36.561Z,13.35
2022-12-05T07:15:05.232Z,10.45
2022-12-05T07:17:37.238Z,11.27
2022-12-05T07:20:08.061Z,9.63
2022-12-05T07:22:37.911Z,10.07
2022-12-05T07:25:06.544Z,11.80
2022-12-05T07:27:35.111Z,9.85
2022-12-05T07:30:03.183Z,10.82
2022-12-05T07:32:33.230Z,10.02
2022-12-05T07:35:01.457Z,9.93
2022-12-05T07:37:31.136Z,8.45
2022-12-05T07:39:59.297Z,9.05
2022-12-05T07:42:27.455Z,9.93
2022-12-05T07:44:55.402Z,10.00
2022-12-05T07:47:23.398Z,10.65
2022-12-05T07:49:51.343Z,9.65
2022-12-05T07:52:19.319Z,10.38
2022-12-05T07:54:48.570Z,10.00
2022-12-05T07:57:16.455Z,9.18
2022-12-05T07:59:44.373Z,9.52
2022-12-05T08:02:12.404Z,10.40
2022-12-05T08:04:40.411Z,8.95
2022-12-05T08:07:11.582Z,9.48
2022-12-05T08:09:39.829Z,11.30
2022-12-05T08:12:09.510Z,10.10
2022-12-05T08:14:37.637Z,10.45
2022-12-05T08:17:05.670Z,9.32
2022-12-05T08:19:33.677Z,10.43
2022-12-05T08:22:01.698Z,10.75
2022-12-05T08:24:29.699Z,10.38
2022-12-05T08:26:57.678Z,9.77
2022-12-05T08:29:27.061Z,10.02
2022-12-05T08:31:55.039Z,10.18
2022-12-05T08:34:23.064Z,10.90
2022-12-05T08:36:50.964Z,10.68
2022-12-05T08:39:20.899Z,9.68
2022-12-05T08:41:50.100Z,9.43
2022-12-05T08:44:18.619Z,10.02
2022-12-05T08:46:50.530Z,10.57
2022-12-05T08:49:19.675Z,9.95
2022-12-05T08:51:47.762Z,9.70
2022-12-05T08:54:16.528Z,9.38
2022-12-05T08:56:44.541Z,8.85
2022-12-05T08:59:12.727Z,9.07
2022-12-05T09:01:42.055Z,8.88
2022-12-05T09:04:12.293Z,8.23
2022-12-05T09:06:41.503Z,9.10
2022-12-05T09:09:11.861Z,8.48
2022-12-05T09:11:43.984Z,8.35
2022-12-05T09:14:11.904Z,9.35
2022-12-05T09:16:40.432Z,9.95
2022-12-05T09:19:13.832Z,8.82
2022-12-05T09:21:42.770Z,9.35
2022-12-05T09:24:12.829Z,9.05
2022-12-05T09:26:41.027Z,8.27
2022-12-05T09:29:15.791Z,8.68
2022-12-05T09:31:45.201Z,8.23
2022-12-05T09:34:15.229Z,8.90
2022-12-05T09:36:43.540Z,7.95
2022-12-05T09:39:11.948Z,8.43
2022-12-05T09:42:10.235Z,7.43
2022-12-05T09:44:53.704Z,7.82
2022-12-05T09:47:56.238Z,7.93
2022-12-05T09:50:28.717Z,7.20
2022-12-05T09:53:11.454Z,7.05
2022-12-05T09:55:50.334Z,7.28
2022-12-05T09:58:27.335Z,7.95
2022-12-05T10:01:03.006Z,7.10
2022-12-05T10:03:39.682Z,7.28
2022-12-05T10:06:16.215Z,6.60
2022-12-05T10:09:08.728Z,7.93
2022-12-05T10:11:42.997Z,6.50
2022-12-05T10:14:19.373Z,6.82
2022-12-05T10:16:50.711Z,6.15
2022-12-05T10:19:23.341Z,6.68
2022-12-05T10:21:58.884Z,6.60
2022-12-05T10:24:32.949Z,5.88
2022-12-05T10:27:05.291Z,6.10
2022-12-05T10:29:36.929Z,5.97
2022-12-05T10:32:12.097Z,6.03
2022-12-05T10:34:42.420Z,5.68
2022-12-05T10:37:16.936Z,5.85
2022-12-05T10:39:45.664Z,4.80
2022-12-05T10:42:17.433Z,5.32
2022-12-05T10:44:46.174Z,5.03
2022-12-05T10:47:15.167Z,5.20
2022-12-05T10:49:43.900Z,4.72
2022-12-05T10:52:14.439Z,4.40
2022-12-05T10:54:47.983Z,4.95
2022-12-05T10:57:24.467Z,3.90
2022-12-05T10:59:52.662Z,3.70
2022-12-05T11:02:25.854Z,4.63
2022-12-05T11:04:54.607Z,4.68
2022-12-05T11:07:31.813Z,4.03
2022-12-05T11:10:00.896Z,4.80
2022-12-05T11:12:31.447Z,4.20
2022-12-05T11:15:02.918Z,4.40
2022-12-05T11:17:36.002Z,4.13
2022-12-05T11:20:25.396Z,3.97
2022-12-05T11:22:58.106Z,4.18
2022-12-05T11:25:29.778Z,4.32
2022-12-05T11:28:01.407Z,3.95
2022-12-05T11:30:30.574Z,4.00
2022-12-05T11:33:13.340Z,4.45
2022-12-05T11:35:41.750Z,3.65
2022-12-05T11:38:13.359Z,4.53
2022-12-05T11:40:48.809Z,4.72
2022-12-05T11:43:36.911Z,4.38
2022-12-05T11:46:23.590Z,4.00
2022-12-05T11:49:08.699Z,3.80
2022-12-05T11:51:41.039Z,4.25
2022-12-05T11:55:03.948Z,3.67
2022-12-05T11:57:37.989Z,4.53
2022-12-05T12:00:22.099Z,3.85
2022-12-05T12:03:17.407Z,3.80
2022-12-05T12:05:57.753Z,3.75
2022-12-05T12:08:28.413Z,3.90
2022-12-05T12:11:08.952Z,4.22
2022-12-05T12:13:49.556Z,4.72
2022-12-05T12:16:22.359Z,4.25
2022-12-05T12:19:19.725Z,4.20
2022-12-05T12:22:03.560Z,3.45
2022-12-05T12:24:44.213Z,3.53
2022-12-05T12:27:20.817Z,3.40
2022-12-05T12:30:04.333Z,3.20
2022-12-05T12:32:44.690Z,3.40
2022-12-05T12:35:32.365Z,3.63
2022-12-05T12:38:25.784Z,3.10
2022-12-05T12:40:58.077Z,3.75
2022-12-05T12:43:53.743Z,3.88
2022-12-05T12:46:37.224Z,4.07
2022-12-05T12:49:31.791Z,3.47
2022-12-05T12:52:03.412Z,4.60
2022-12-05T12:55:13.969Z,3.92
2022-12-05T12:57:46.617Z,4.82
2022-12-05T13:00:24.803Z,3.72
2022-12-05T13:05:33.111Z,4.22
2022-12-05T13:08:05.932Z,4.00
2022-12-05T13:10:36.475Z,4.22
2022-12-05T13:13:07.003Z,4.18
2022-12-05T13:15:41.034Z,4.68
2022-12-05T13:18:15.990Z,4.30
2022-12-05T13:21:07.055Z,4.03
2022-12-05T13:23:47.403Z,3.80
2022-12-05T13:27:06.895Z,3.40
2022-12-05T13:29:41.913Z,3.58
2022-12-05T13:32:34.414Z,3.45
2022-12-05T13:35:12.303Z,3.80
2022-12-05T13:38:08.668Z,3.47
2022-12-05T13:41:00.574Z,3.72
2022-12-05T13:43:30.910Z,3.58
2022-12-05T13:46:10.384Z,3.92
2022-12-05T13:49:02.113Z,3.20
2022-12-05T13:51:40.910Z,3.22
2022-12-05T13:54:16.277Z,3.65
2022-12-05T13:56:53.918Z,3.92
2022-12-05T14:00:08.120Z,4.20
2022-12-05T14:02:58.178Z,2.85
2022-12-05T14:05:58.949Z,3.00
2022-12-05T14:12:53.053Z,2.50
2022-12-05T14:15:36.360Z,2.45
2022-12-05T14:18:16.645Z,2.42
2022-12-05T14:20:52.281Z,2.30
2022-12-05T14:23:41.131Z,2.60
2022-12-05T14:26:22.712Z,2.60
2022-12-05T14:29:28.050Z,2.08
2022-12-05T14:32:07.225Z,2.33
2022-12-05T14:34:38.540Z,2.53
2022-12-05T14:37:25.985Z,3.03
2022-12-05T14:40:03.072Z,2.88
2022-12-05T14:43:04.186Z,3.00
2022-12-05T14:45:36.890Z,2.40
2022-12-05T14:48:33.652Z,2.17
2022-12-05T14:51:08.045Z,2.30
2022-12-05T14:54:32.440Z,2.13
2022-12-05T14:57:13.320Z,2.92
2022-12-05T14:59:50.955Z,2.38
2022-12-05T15:02:31.536Z,2.42
2022-12-05T15:05:07.123Z,2.60
2022-12-05T15:07:38.422Z,2.47
2022-12-05T15:10:14.942Z,2.55
2022-12-05T15:12:48.449Z,3.20
2022-12-05T15:15:20.243Z,2.63
2022-12-05T15:17:50.632Z,2.35
2022-12-05T15:20:40.121Z,2.20
2022-12-05T15:23:39.186Z,2.42
2022-12-05T15:26:45.127Z,2.30
2022-12-05T15:29:08.176Z,3.00
2022-12-05T15:31:39.162Z,3.08
2022-12-05T15:34:14.546Z,4.10
2022-12-05T15:36:46.640Z,2.63
2022-12-05T15:39:23.566Z,3.55
2022-12-05T15:41:52.650Z,2.75
2022-12-05T15:44:27.259Z,3.15
2022-12-05T15:46:57.626Z,2.60
2022-12-05T15:49:27.186Z,3.15
2022-12-05T15:51:59.264Z,2.88
2022-12-05T15:54:33.215Z,3.05
2022-12-05T15:57:05.501Z,3.63
2022-12-05T15:59:39.947Z,3.00
2022-12-05T16:02:16.088Z,2.90
2022-12-05T16:04:48.713Z,3.35
2022-12-05T16:07:16.793Z,2.75
2022-12-05T16:09:47.362Z,3.03
2022-12-05T16:12:28.039Z,3.38
2022-12-05T16:15:01.955Z,2.80
2022-12-05T16:17:38.591Z,2.92
2022-12-05T16:20:22.543Z,3.50
2022-12-05T16:22:52.102Z,3.15
2022-12-05T16:25:25.472Z,3.35
2022-12-05T16:28:02.684Z,3.45
2022-12-05T16:30:32.765Z,4.80
2022-12-05T16:33:06.467Z,4.32
2022-12-05T16:35:37.494Z,3.80
2022-12-05T16:38:14.518Z,3.80
2022-12-05T16:40:53.116Z,3.92
2022-12-05T16:43:26.402Z,3.75
2022-12-05T16:45:58.575Z,3.80
2022-12-05T16:48:28.005Z,4.75
2022-12-05T16:51:18.535Z,4.47
2022-12-05T16:53:49.922Z,4.25
2022-12-05T16:56:21.597Z,4.35
2022-12-05T16:58:49.594Z,4.03
2022-12-05T17:01:22.014Z,3.90
2022-12-05T17:03:50.435Z,4.72
2022-12-05T17:06:19.181Z,4.80
2022-12-05T17:08:47.032Z,5.00
2022-12-05T17:11:18.249Z,3.60
2022-12-05T17:13:48.377Z,4.70
2022-12-05T17:16:18.183Z,3.85
2022-12-05T17:18:46.586Z,4.05
2022-12-05T17:21:17.541Z,4.55
2022-12-05T17:23:47.934Z,4.85
2022-12-05T17:26:17.720Z,4.95
2022-12-05T17:28:45.840Z,4.40
2022-12-05T17:31:14.733Z,5.22
2022-12-05T17:33:44.231Z,5.57
2022-12-05T17:36:12.220Z,5.60
2022-12-05T17:38:40.229Z,4.50
2022-12-05T17:41:08.799Z,4.72
2022-12-05T17:43:36.696Z,5.55
2022-12-05T17:46:04.694Z,5.72
2022-12-05T17:48:32.637Z,6.10
2022-12-05T17:51:04.023Z,5.97
2022-12-05T17:53:31.940Z,6.45
2022-12-05T17:55:59.879Z,14.57
2022-12-05T17:58:27.766Z,13.23
2022-12-05T18:00:55.843Z,6.78
2022-12-05T18:03:23.894Z,6.57
2022-12-05T18:05:51.920Z,6.55
2022-12-05T18:08:21.204Z,7.05
2022-12-05T18:10:50.593Z,7.78
2022-12-05T18:13:19.272Z,7.03
2022-12-05T18:15:48.926Z,7.75
2022-12-05T18:18:18.831Z,7.95
2022-12-05T18:20:46.760Z,7.88
2022-12-05T18:23:14.848Z,7.60
2022-12-05T18:25:44.106Z,6.95
2022-12-05T18:28:16.376Z,6.55
2022-12-05T18:30:47.425Z,7.50
2022-12-05T18:33:15.348Z,8.40
2022-12-05T18:35:43.269Z,6.75
2022-12-05T18:38:12.253Z,6.25
2022-12-05T18:40:40.237Z,6.38
2022-12-05T18:43:09.473Z,6.38
2022-12-05T18:45:37.981Z,6.63
2022-12-05T18:50:54.625Z,8.40
2022-12-05T18:53:22.768Z,6.50
2022-12-05T18:56:13.730Z,5.72
2022-12-05T18:58:40.139Z,6.15
2022-12-05T19:01:09.599Z,7.35
2022-12-05T19:03:38.967Z,6.95
2022-12-05T19:06:13.172Z,7.28
2022-12-05T19:08:41.198Z,7.20
2022-12-05T19:11:09.486Z,7.28
2022-12-05T19:13:37.539Z,7.07
2022-12-05T19:16:12.334Z,8.23
2022-12-05T19:18:41.983Z,7.65
2022-12-05T19:21:20.040Z,7.75
2022-12-05T19:26:26.676Z,7.90
2022-12-05T19:28:57.702Z,7.50
2022-12-05T19:31:31.932Z,6.45
2022-12-05T19:34:02.239Z,6.28
2022-12-05T19:36:33.438Z,6.78
2022-12-05T19:39:11.230Z,6.85
2022-12-05T19:41:39.878Z,7.25
2022-12-05T19:44:11.840Z,6.50
2022-12-05T19:46:42.651Z,7.47
2022-12-05T19:49:16.178Z,6.97
2022-12-05T19:51:50.266Z,6.22
2022-12-05T19:54:19.968Z,6.68
2022-12-05T19:57:18.280Z,7.32
2022-12-05T19:59:46.966Z,7.60
2022-12-05T20:02:20.593Z,8.40
2022-12-05T20:04:49.456Z,8.75
2022-12-05T20:07:19.254Z,9.27
2022-12-05T20:09:47.848Z,8.02
2022-12-05T20:12:42.215Z,6.95
2022-12-05T20:15:11.845Z,7.80
2022-12-05T20:17:42.149Z,8.02
2022-12-05T20:20:12.280Z,7.68
2022-12-05T20:22:43.514Z,8.35
2022-12-05T20:25:20.806Z,10.18
2022-12-05T20:27:52.967Z,8.88
2022-12-05T20:30:24.690Z,9.07
2022-12-05T20:33:08.161Z,8.70
2022-12-05T20:35:46.479Z,8.57
2022-12-05T20:38:15.683Z,9.15
2022-12-05T20:40:52.969Z,8.52
2022-12-05T20:43:31.720Z,9.25
2022-12-05T20:46:18.827Z,9.65
2022-12-05T20:48:50.008Z,9.40
2022-12-05T20:51:29.081Z,10.02
2022-12-05T20:53:59.006Z,9.13
2022-12-05T20:56:31.831Z,9.48
2022-12-05T20:59:02.304Z,9.23
2022-12-05T21:01:38.258Z,10.75
2022-12-05T21:04:11.970Z,9.50
2022-12-05T21:06:46.055Z,9.50
2022-12-05T21:09:27.771Z,10.13
2022-12-05T21:11:59.523Z,9.32
2022-12-05T21:14:28.209Z,9.35
2022-12-05T21:17:14.140Z,9.15
2022-12-05T21:19:48.726Z,9.65
2022-12-05T21:22:18.577Z,9.05
2022-12-05T21:24:47.113Z,9.02
2022-12-05T21:28:11.204Z,8.05
2022-12-05T21:30:41.297Z,8.15
2022-12-05T21:36:56.413Z,8.10
2022-12-05T21:39:25.436Z,8.10
2022-12-05T21:41:54.810Z,8.63
2022-12-05T21:45:13.633Z,8.30
2022-12-05T21:47:44.201Z,8.45
2022-12-05T21:50:14.934Z,9.52
2022-12-05T21:52:49.558Z,8.43
2022-12-05T21:58:42.712Z,8.98
2022-12-05T22:01:31.834Z,9.05
2022-12-05T22:04:18.915Z,8.40
2022-12-05T22:06:48.841Z,9.57
2022-12-05T22:09:38.904Z,8.95
2022-12-05T22:12:08.732Z,7.90
2022-12-05T22:14:40.443Z,8.68
2022-12-05T22:17:10.847Z,8.90
2022-12-05T22:19:45.020Z,8.73
2022-12-05T22:22:13.764Z,8.68
2022-12-05T22:24:43.042Z,8.90
2022-12-05T22:27:10.960Z,8.10
2022-12-05T22:29:38.962Z,9.65
2022-12-05T22:32:07.078Z,8.73
2022-12-05T22:34:35.047Z,7.65
2022-12-05T22:37:02.934Z,8.60
2022-12-05T22:39:30.819Z,8.98
2022-12-05T22:42:00.136Z,7.72
2022-12-05T22:44:28.444Z,8.35
2022-12-05T22:46:56.407Z,8.10
2022-12-05T22:49:25.286Z,9.02
2022-12-05T22:51:53.345Z,8.80
2022-12-05T22:54:24.704Z,9.00
2022-12-05T22:56:55.199Z,8.27
2022-12-05T22:59:24.446Z,8.40
2022-12-05T23:01:52.371Z,8.18
2022-12-05T23:04:20.521Z,8.60
2022-12-05T23:06:48.526Z,7.85
2022-12-05T23:09:16.512Z,8.48
2022-12-05T23:11:44.531Z,8.13
2022-12-05T23:14:12.575Z,8.57
2022-12-05T23:16:41.967Z,7.47
2022-12-05T23:19:10.269Z,7.30
2022-12-05T23:21:40.373Z,7.20
2022-12-05T23:24:09.968Z,7.32
2022-12-05T23:26:40.541Z,6.82
2022-12-05T23:29:09.141Z,6.88
2022-12-05T23:31:37.332Z,6.75
2022-12-05T23:34:06.740Z,7.13
2022-12-05T23:36:36.177Z,6.80
2022-12-05T23:39:16.925Z,7.10
2022-12-05T23:41:51.396Z,7.68
2022-12-05T23:44:20.763Z,6.90
2022-12-05T23:46:55.482Z,7.85
2022-12-05T23:49:32.110Z,7.40
2022-12-05T23:52:00.798Z,8.23
2022-12-05T23:54:32.552Z,7.90
2022-12-05T23:57:01.649Z,7.22
2022-12-05T23:59:53.677Z,7.35
